Time;durP1;ratioP1;P1;durP2;ratioP2;P2;SDS_P1;SDS_P2;PMS_P1;PMS_P2;Temp;Humidity;BMP_temperature;BMP_pressure;BME280_temperature;BME280_humidity;BME280_pressure;Samples;Min_cycle;Max_cycle;Signal;HPM_P1;HPM_P2
2022/12/05 00:01:41;;;;;;;81.25;15.23;;;;;;;;;;5033648;28;20225;-75
2022/12/05 00:04:10;;;;;;;80.13;16.45;;;;;;;;;;5033764;28;20219;-75
2022/12/05 00:06:38;;;;;;;78.15;15.45;;;;;;;;;;5033381;28;20675;-75
2022/12/05 00:09:07;;;;;;;84.35;15.82;;;;;;;;;;5032700;28;20232;-76
2022/12/05 00:11:36;;;;;;;81.68;16.45;;;;;;;;;;5033431;28;20203;-76
2022/12/05 00:14:05;;;;;;;80.90;16.90;;;;;;;;;;5033212;28;20217;-76
2022/12/05 00:16:33;;;;;;;79.57;15.98;;;;;;;;;;5033328;28;20231;-75
2022/12/05 00:19:00;;;;;;;76.20;14.80;;;;;;;;;;5032370;28;20248;-75
2022/12/05 00:21:29;;;;;;;77.25;14.70;;;;;;;;;;5033279;28;20297;-75
2022/12/05 00:23:56;;;;;;;78.75;15.93;;;;;;;;;;5032921;28;20294;-75
2022/12/05 00:26:25;;;;;;;75.80;15.43;;;;;;;;;;5033164;28;20211;-74
2022/12/05 00:28:52;;;;;;;87.25;16.30;;;;;;;;;;5032116;28;20218;-75
2022/12/05 00:31:21;;;;;;;78.55;15.85;;;;;;;;;;5033299;28;20562;-75
2022/12/05 00:33:48;;;;;;;80.50;14.73;;;;;;;;;;5033153;28;20202;-74
2022/12/05 00:36:16;;;;;;;75.57;15.05;;;;;;;;;;5032943;28;20247;-75
2022/12/05 00:38:43;;;;;;;77.50;16.00;;;;;;;;;;5032162;28;20293;-76
2022/12/05 00:41:11;;;;;;;76.32;15.75;;;;;;;;;;5032739;28;20579;-75
2022/12/05 00:43:39;;;;;;;80.95;15.85;;;;;;;;;;5033034;28;20205;-74
2022/12/05 00:46:08;;;;;;;75.95;16.30;;;;;;;;;;5032985;28;20586;-75
2022/12/05 00:48:35;;;;;;;77.40;15.63;;;;;;;;;;5031737;28;20684;-75
2022/12/05 00:51:03;;;;;;;79.30;16.30;;;;;;;;;;5032438;28;20305;-75
2022/12/05 00:53:30;;;;;;;77.80;14.73;;;;;;;;;;5032508;28;20210;-75
2022/12/05 00:55:57;;;;;;;79.45;17.50;;;;;;;;;;5032966;28;20212;-75
2022/12/05 00:58:24;;;;;;;79.50;16.75;;;;;;;;;;5032351;28;20217;-75
2022/12/05 01:00:52;;;;;;;80.63;16.25;;;;;;;;;;5032187;28;20233;-75
2022/12/05 01:03:19;;;;;;;79.40;16.40;;;;;;;;;;5032516;28;20315;-75
2022/12/05 01:05:47;;;;;;;79.38;16.67;;;;;;;;;;5032367;28;20203;-75
2022/12/05 01:08:14;;;;;;;80.18;17.00;;;;;;;;;;5032218;28;20199;-74
2022/12/05 01:10:41;;;;;;;78.80;16.33;;;;;;;;;;5031810;28;20226;-75
2022/12/05 01:13:08;;;;;;;76.88;15.90;;;;;;;;;;5032455;28;20213;-75
2022/12/05 01:15:37;;;;;;;83.55;17.60;;;;;;;;;;5032172;28;20693;-75
2022/12/05 01:18:05;;;;;;;81.20;17.63;;;;;;;;;;5032070;28;20243;-75
2022/12/05 01:20:32;;;;;;;81.55;16.02;;;;;;;;;;5031410;28;20737;-75
2022/12/05 01:22:59;;;;;;;83.07;17.27;;;;;;;;;;5032111;28;20213;-75
2022/12/05 01:25:26;;;;;;;81.95;16.67;;;;;;;;;;5032219;28;20209;-75
2022/12/05 01:27:54;;;;;;;79.93;16.60;;;;;;;;;;5032193;28;20211;-75
2022/12/05 01:30:21;;;;;;;78.43;16.52;;;;;;;;;;5031366;28;20263;-75
2022/12/05 01:32:48;;;;;;;77.63;16.00;;;;;;;;;;5031976;28;20293;-74
2022/12/05 01:35:16;;;;;;;76.00;16.15;;;;;;;;;;5031284;28;20214;-74
2022/12/05 01:37:44;;;;;;;77.18;14.70;;;;;;;;;;5032043;28;20233;-74
2022/12/05 01:40:11;;;;;;;75.32;14.27;;;;;;;;;;5031201;28;20239;-74
2022/12/05 01:42:39;;;;;;;77.53;14.55;;;;;;;;;;5031997;28;20206;-74
2022/12/05 01:45:08;;;;;;;77.55;16.08;;;;;;;;;;5031908;28;20236;-74
2022/12/05 01:47:36;;;;;;;78.13;15.30;;;;;;;;;;5031734;28;20677;-74
2022/12/05 01:50:04;;;;;;;73.95;14.57;;;;;;;;;;5030807;28;20264;-74
2022/12/05 01:52:34;;;;;;;79.28;15.60;;;;;;;;;;5032011;28;20698;-73
2022/12/05 01:55:03;;;;;;;77.90;15.00;;;;;;;;;;5031822;28;20212;-74
2022/12/05 01:57:31;;;;;;;78.40;14.60;;;;;;;;;;5031732;28;20237;-73
2022/12/05 02:00:00;;;;;;;77.38;16.45;;;;;;;;;;5030880;28;20227;-74
2022/12/05 02:02:28;;;;;;;77.85;15.65;;;;;;;;;;5031561;28;20209;-74
2022/12/05 02:05:00;;;;;;;78.30;16.15;;;;;;;;;;5031724;28;20203;-75
2022/12/05 02:07:27;;;;;;;81.97;15.57;;;;;;;;;;5031851;28;20272;-75
2022/12/05 02:09:56;;;;;;;77.82;15.43;;;;;;;;;;5030813;28;20232;-74
2022/12/05 02:12:24;;;;;;;74.35;15.00;;;;;;;;;;5031714;28;20215;-74
2022/12/05 02:14:57;;;;;;;81.15;16.33;;;;;;;;;;5031466;28;20300;-74
2022/12/05 02:17:27;;;;;;;78.88;15.15;;;;;;;;;;5031840;28;20227;-74
2022/12/05 02:20:04;;;;;;;81.35;16.73;;;;;;;;;;5031162;28;20249;-74
2022/12/05 02:22:50;;;;;;;75.82;16.10;;;;;;;;;;5031596;28;20224;-74
2022/12/05 02:25:30;;;;;;;75.97;15.10;;;;;;;;;;5031468;28;20226;-74
2022/12/05 02:28:10;;;;;;;78.35;15.05;;;;;;;;;;5031623;28;20542;-74
2022/12/05 02:30:42;;;;;;;73.97;13.88;;;;;;;;;;5030156;28;20661;-73
2022/12/05 02:33:14;;;;;;;77.00;15.65;;;;;;;;;;5031293;28;20248;-74
2022/12/05 02:35:47;;;;;;;77.78;16.17;;;;;;;;;;5031414;28;20685;-75
2022/12/05 02:38:19;;;;;;;77.47;16.30;;;;;;;;;;5031304;28;20237;-74
2022/12/05 02:40:51;;;;;;;77.10;14.27;;;;;;;;;;5030657;28;20230;-74
2022/12/05 02:43:20;;;;;;;75.68;14.90;;;;;;;;;;5031319;28;20207;-75
2022/12/05 02:45:50;;;;;;;79.15;14.52;;;;;;;;;;5033174;28;20211;-75
2022/12/05 02:48:18;;;;;;;78.47;15.35;;;;;;;;;;5035185;28;20207;-75
2022/12/05 02:50:47;;;;;;;75.25;13.95;;;;;;;;;;5034160;28;20724;-75
2022/12/05 02:53:16;;;;;;;74.82;13.48;;;;;;;;;;5034833;28;20222;-75
2022/12/05 02:55:44;;;;;;;73.95;14.20;;;;;;;;;;5034743;28;20302;-75
2022/12/05 02:58:13;;;;;;;76.68;14.70;;;;;;;;;;5034808;28;20233;-75
2022/12/05 03:00:43;;;;;;;70.80;12.43;;;;;;;;;;5034145;28;20229;-75
2022/12/05 03:03:15;;;;;;;73.00;13.05;;;;;;;;;;5034746;28;20594;-75
2022/12/05 03:05:45;;;;;;;73.68;13.70;;;;;;;;;;5034732;28;20220;-75
2022/12/05 03:08:15;;;;;;;71.60;13.05;;;;;;;;;;5034382;28;20204;-75
2022/12/05 03:10:43;;;;;;;75.10;13.70;;;;;;;;;;5034012;28;20228;-75
2022/12/05 03:13:13;;;;;;;76.35;14.85;;;;;;;;;;5034657;28;20611;-76
2022/12/05 03:15:43;;;;;;;74.03;13.95;;;;;;;;;;5034573;28;20671;-75
2022/12/05 03:18:11;;;;;;;78.50;14.75;;;;;;;;;;5034147;28;20232;-74
2022/12/05 03:20:44;;;;;;;77.05;14.40;;;;;;;;;;5033559;28;20229;-75
2022/12/05 03:23:13;;;;;;;79.05;14.15;;;;;;;;;;5034566;28;20211;-75
2022/12/05 03:25:44;;;;;;;75.75;13.50;;;;;;;;;;5034229;28;20210;-75
2022/12/05 03:28:15;;;;;;;74.88;13.52;;;;;;;;;;5034270;28;20213;-75
2022/12/05 03:30:43;;;;;;;79.85;15.10;;;;;;;;;;5033537;28;20223;-75
2022/12/05 03:33:12;;;;;;;76.82;16.10;;;;;;;;;;5033988;28;20581;-74
2022/12/05 03:35:45;;;;;;;73.90;15.02;;;;;;;;;;5034117;28;20209;-75
2022/12/05 03:38:14;;;;;;;76.18;14.00;;;;;;;;;;5034081;28;20731;-74
2022/12/05 03:40:43;;;;;;;76.75;14.93;;;;;;;;;;5033376;28;20225;-74
2022/12/05 03:43:12;;;;;;;77.30;14.05;;;;;;;;;;5033862;28;20211;-74
2022/12/05 03:45:42;;;;;;;74.05;13.50;;;;;;;;;;5033746;28;20303;-74
2022/12/05 03:48:14;;;;;;;75.78;13.95;;;;;;;;;;5033827;28;20212;-73
2022/12/05 03:50:45;;;;;;;72.30;13.82;;;;;;;;;;5033065;28;20229;-73
2022/12/05 03:53:14;;;;;;;75.00;13.45;;;;;;;;;;5033743;28;20683;-73
2022/12/05 03:55:42;;;;;;;79.35;13.35;;;;;;;;;;5033737;28;20208;-74
2022/12/05 03:58:10;;;;;;;75.22;14.38;;;;;;;;;;5032843;28;20226;-73
2022/12/05 04:00:40;;;;;;;76.10;13.32;;;;;;;;;;5032800;28;20239;-74
2022/12/05 04:03:09;;;;;;;73.57;14.23;;;;;;;;;;5033702;28;20215;-75
2022/12/05 04:05:40;;;;;;;76.80;13.40;;;;;;;;;;5033661;28;20303;-76
2022/12/05 04:08:11;;;;;;;74.90;13.93;;;;;;;;;;5033524;28;20199;-75
2022/12/05 04:10:48;;;;;;;76.05;14.35;;;;;;;;;;5032698;28;20317;-74
2022/12/05 04:13:17;;;;;;;74.90;13.77;;;;;;;;;;5033651;28;20212;-74
2022/12/05 04:18:33;;;;;;;77.07;14.63;;;;;;;;;;5032749;28;20239;-72
2022/12/05 04:25:31;;;;;;;78.03;14.38;;;;;;;;;;5033301;28;20722;-74
2022/12/05 04:26:34;;;;;;;75.90;13.05;;;;;;;;;;5033196;28;20217;-74
2022/12/05 04:29:04;;;;;;;78.97;14.57;;;;;;;;;;5032274;28;20220;-74
2022/12/05 04:31:33;;;;;;;77.32;14.57;;;;;;;;;;5032953;28;20220;-75
2022/12/05 04:34:04;;;;;;;75.85;13.77;;;;;;;;;;5033048;28;20218;-75
2022/12/05 04:36:33;;;;;;;72.05;12.93;;;;;;;;;;5033152;28;20218;-74
2022/12/05 04:39:04;;;;;;;78.60;14.52;;;;;;;;;;5032039;28;20324;-75
2022/12/05 04:41:34;;;;;;;74.20;12.63;;;;;;;;;;5033010;28;20271;-74
2022/12/05 04:44:03;;;;;;;75.60;13.80;;;;;;;;;;5032728;28;20216;-74
2022/12/05 04:46:30;;;;;;;81.05;16.48;;;;;;;;;;5032895;28;20213;-74
2022/12/05 04:48:59;;;;;;;76.25;13.77;;;;;;;;;;5031822;28;20622;-74
2022/12/05 04:51:29;;;;;;;74.75;13.95;;;;;;;;;;5032593;28;20682;-74
2022/12/05 04:53:57;;;;;;;76.88;13.40;;;;;;;;;;5032780;28;20692;-74
2022/12/05 04:56:28;;;;;;;79.72;15.02;;;;;;;;;;5032467;28;20212;-74
2022/12/05 04:58:55;;;;;;;77.00;15.57;;;;;;;;;;5031585;28;20228;-74
2022/12/05 05:01:24;;;;;;;76.88;15.10;;;;;;;;;;5032615;28;20208;-75
2022/12/05 05:03:53;;;;;;;74.85;13.00;;;;;;;;;;5032527;28;20208;-75
2022/12/05 05:06:20;;;;;;;76.43;12.73;;;;;;;;;;5032452;28;20224;-75
2022/12/05 05:08:48;;;;;;;73.50;14.13;;;;;;;;;;5030568;28;20700;-75
2022/12/05 05:11:16;;;;;;;76.20;14.68;;;;;;;;;;5032144;28;20265;-75
2022/12/05 05:13:45;;;;;;;74.13;12.85;;;;;;;;;;5032181;28;20210;-75
2022/12/05 05:16:16;;;;;;;76.47;14.10;;;;;;;;;;5032209;28;20209;-75
2022/12/05 05:18:44;;;;;;;75.35;14.65;;;;;;;;;;5031276;28;20238;-75
2022/12/05 05:21:15;;;;;;;74.07;12.75;;;;;;;;;;5032179;28;20209;-75
2022/12/05 05:23:42;;;;;;;73.40;12.68;;;;;;;;;;5032105;28;20232;-75
2022/12/05 05:26:09;;;;;;;75.20;13.10;;;;;;;;;;5032322;28;20205;-74
2022/12/05 05:28:36;;;;;;;76.90;15.35;;;;;;;;;;5031377;28;20301;-74
2022/12/05 05:31:05;;;;;;;73.57;13.57;;;;;;;;;;5032050;28;20223;-73
2022/12/05 05:33:33;;;;;;;79.35;15.63;;;;;;;;;;5032039;28;20209;-74
2022/12/05 05:36:02;;;;;;;75.60;14.60;;;;;;;;;;5031916;28;20701;-74
2022/12/05 05:38:29;;;;;;;76.53;14.77;;;;;;;;;;5031563;28;20233;-73
2022/12/05 05:40:56;;;;;;;80.60;15.65;;;;;;;;;;5031750;28;20237;-74
2022/12/05 05:43:23;;;;;;;77.88;14.95;;;;;;;;;;5031980;28;20210;-73
2022/12/05 05:45:50;;;;;;;77.03;16.35;;;;;;;;;;5031966;28;20209;-74
2022/12/05 05:48:19;;;;;;;76.57;15.32;;;;;;;;;;5031619;28;20218;-74
2022/12/05 05:50:46;;;;;;;80.10;15.38;;;;;;;;;;5030694;28;20238;-74
2022/12/05 05:53:13;;;;;;;77.00;15.50;;;;;;;;;;5031800;28;20704;-75
2022/12/05 05:55:40;;;;;;;79.53;15.43;;;;;;;;;;5032099;28;20217;-75
2022/12/05 05:58:07;;;;;;;73.80;14.00;;;;;;;;;;5031751;28;20233;-75
2022/12/05 06:00:34;;;;;;;73.90;14.02;;;;;;;;;;5031242;28;20229;-75
2022/12/05 06:03:01;;;;;;;74.60;13.50;;;;;;;;;;5031946;28;20212;-76
2022/12/05 06:05:30;;;;;;;79.05;15.63;;;;;;;;;;5031640;28;20681;-75
2022/12/05 06:07:57;;;;;;;75.47;15.27;;;;;;;;;;5031585;28;20686;-75
2022/12/05 06:10:24;;;;;;;76.55;13.73;;;;;;;;;;5030950;28;20225;-76
2022/12/05 06:12:51;;;;;;;79.40;15.32;;;;;;;;;;5031513;28;20209;-76
2022/12/05 06:15:18;;;;;;;77.97;16.25;;;;;;;;;;5031641;28;20208;-76
2022/12/05 06:17:46;;;;;;;76.07;15.15;;;;;;;;;;5031390;28;20224;-76
2022/12/05 06:20:13;;;;;;;78.10;14.68;;;;;;;;;;5031441;28;20231;-75
2022/12/05 06:22:41;;;;;;;75.15;14.82;;;;;;;;;;5035431;28;20224;-75
2022/12/05 06:25:09;;;;;;;76.53;15.13;;;;;;;;;;5035573;28;20209;-76
2022/12/05 06:27:36;;;;;;;76.13;13.90;;;;;;;;;;5035449;28;20614;-76
2022/12/05 06:30:04;;;;;;;77.63;15.70;;;;;;;;;;5034454;28;20239;-74
2022/12/05 06:32:31;;;;;;;75.75;15.00;;;;;;;;;;5035197;28;20698;-74
2022/12/05 06:34:58;;;;;;;75.40;15.48;;;;;;;;;;5035390;28;20202;-74
2022/12/05 06:37:25;;;;;;;76.53;15.55;;;;;;;;;;5035208;28;20208;-74
2022/12/05 06:39:54;;;;;;;75.22;15.27;;;;;;;;;;5034177;28;20604;-74
2022/12/05 06:42:21;;;;;;;79.38;16.48;;;;;;;;;;5035121;28;20218;-74
2022/12/05 06:44:48;;;;;;;76.30;13.50;;;;;;;;;;5034945;28;20219;-74
2022/12/05 06:47:16;;;;;;;79.95;15.20;;;;;;;;;;5034964;28;20213;-74
2022/12/05 06:49:43;;;;;;;77.97;16.27;;;;;;;;;;5034084;28;20231;-74
2022/12/05 06:52:11;;;;;;;77.05;15.75;;;;;;;;;;5035045;28;20236;-74
2022/12/05 06:54:38;;;;;;;78.07;15.38;;;;;;;;;;5034795;28;20205;-74
2022/12/05 06:57:08;;;;;;;78.00;15.23;;;;;;;;;;5034780;28;20244;-74
2022/12/05 06:59:35;;;;;;;80.70;15.65;;;;;;;;;;5033721;28;20777;-74
2022/12/05 07:02:01;;;;;;;78.28;16.38;;;;;;;;;;5034643;28;20220;-73
2022/12/05 07:04:28;;;;;;;78.85;17.27;;;;;;;;;;5034784;28;20241;-74
2022/12/05 07:06:56;;;;;;;76.85;16.20;;;;;;;;;;5034768;28;20210;-73
2022/12/05 07:09:44;;;;;;;74.85;14.05;;;;;;;;;;5033710;28;20731;-74
2022/12/05 07:12:13;;;;;;;77.70;16.38;;;;;;;;;;5034432;28;20212;-75
2022/12/05 07:14:40;;;;;;;82.80;15.35;;;;;;;;;;5034644;28;20248;-75
2022/12/05 07:17:07;;;;;;;75.25;15.05;;;;;;;;;;5034556;28;20203;-75
2022/12/05 07:19:34;;;;;;;77.82;16.60;;;;;;;;;;5033583;28;20238;-74
2022/12/05 07:22:01;;;;;;;78.03;16.80;;;;;;;;;;5034437;28;20617;-75
2022/12/05 07:24:28;;;;;;;78.28;15.65;;;;;;;;;;5034163;28;20208;-74
2022/12/05 07:26:56;;;;;;;80.00;16.00;;;;;;;;;;5034437;28;20215;-75
2022/12/05 07:29:24;;;;;;;80.20;16.90;;;;;;;;;;5033354;28;20731;-74
2022/12/05 07:31:51;;;;;;;77.25;16.95;;;;;;;;;;5033259;28;20213;-75
2022/12/05 07:34:18;;;;;;;82.47;17.25;;;;;;;;;;5034594;28;20227;-75
2022/12/05 07:36:45;;;;;;;81.05;16.98;;;;;;;;;;5034065;28;20215;-75
2022/12/05 07:39:12;;;;;;;79.60;16.65;;;;;;;;;;5033100;28;20240;-75
2022/12/05 07:41:40;;;;;;;78.88;17.25;;;;;;;;;;5033895;28;20212;-75
2022/12/05 07:44:08;;;;;;;80.00;15.48;;;;;;;;;;5034251;28;20202;-75
2022/12/05 07:46:36;;;;;;;74.25;14.55;;;;;;;;;;5034031;28;20212;-76
2022/12/05 07:49:03;;;;;;;77.43;15.70;;;;;;;;;;5032964;28;20321;-76
2022/12/05 07:51:30;;;;;;;76.72;15.20;;;;;;;;;;5033760;28;20218;-76
2022/12/05 07:54:00;;;;;;;75.82;14.48;;;;;;;;;;5034048;28;20216;-75
2022/12/05 07:56:27;;;;;;;77.10;15.27;;;;;;;;;;5033936;28;20216;-77
2022/12/05 07:58:54;;;;;;;75.93;15.00;;;;;;;;;;5033764;28;20234;-77
2022/12/05 08:01:22;;;;;;;78.25;15.82;;;;;;;;;;5034628;28;20448;-76
2022/12/05 08:03:53;;;;;;;75.30;16.02;;;;;;;;;;5034543;28;20704;-76
2022/12/05 08:06:21;;;;;;;76.28;15.18;;;;;;;;;;5034651;28;20344;-76
2022/12/05 08:08:48;;;;;;;77.22;14.40;;;;;;;;;;5033319;28;20205;-76
2022/12/05 08:11:17;;;;;;;71.28;13.43;;;;;;;;;;5033383;28;20670;-76
2022/12/05 08:13:44;;;;;;;75.72;15.25;;;;;;;;;;5033558;28;20607;-76
2022/12/05 08:16:13;;;;;;;76.10;13.52;;;;;;;;;;5033921;28;20240;-77
2022/12/05 08:18:40;;;;;;;77.32;14.85;;;;;;;;;;5033266;28;20234;-76
2022/12/05 08:21:10;;;;;;;71.47;13.55;;;;;;;;;;5034850;28;20217;-77
2022/12/05 08:23:38;;;;;;;75.85;13.98;;;;;;;;;;5034385;28;20206;-76
2022/12/05 08:26:06;;;;;;;76.55;14.45;;;;;;;;;;5033958;28;20206;-76
2022/12/05 08:28:33;;;;;;;71.60;13.95;;;;;;;;;;5033097;28;20206;-76
2022/12/05 08:31:04;;;;;;;72.87;13.17;;;;;;;;;;5033183;28;20237;-76
2022/12/05 08:33:31;;;;;;;74.70;14.45;;;;;;;;;;5033392;28;20460;-76
2022/12/05 08:36:00;;;;;;;75.20;14.50;;;;;;;;;;5033310;28;20212;-75
2022/12/05 08:38:28;;;;;;;74.78;15.27;;;;;;;;;;5033560;28;20488;-76
2022/12/05 08:40:56;;;;;;;74.03;14.90;;;;;;;;;;5032488;28;20239;-76
2022/12/05 08:43:23;;;;;;;73.35;13.80;;;;;;;;;;5033227;28;20304;-76
2022/12/05 08:45:50;;;;;;;75.75;15.52;;;;;;;;;;5033213;28;20581;-76
2022/12/05 08:48:17;;;;;;;71.57;11.68;;;;;;;;;;5032947;28;20584;-76
2022/12/05 08:50:45;;;;;;;85.53;15.18;;;;;;;;;;5032309;28;20225;-76
2022/12/05 08:53:12;;;;;;;72.03;12.50;;;;;;;;;;5033193;28;20214;-76
2022/12/05 08:55:40;;;;;;;77.10;14.85;;;;;;;;;;5032729;28;20301;-75
2022/12/05 08:58:07;;;;;;;73.32;14.70;;;;;;;;;;5032330;28;20206;-76
2022/12/05 09:00:34;;;;;;;71.90;12.77;;;;;;;;;;5031774;28;20226;-76
2022/12/05 09:03:02;;;;;;;77.03;13.35;;;;;;;;;;5032637;28;20545;-76
2022/12/05 09:05:29;;;;;;;72.63;13.77;;;;;;;;;;5032409;28;20214;-76
2022/12/05 09:07:58;;;;;;;72.67;13.50;;;;;;;;;;5032304;28;20205;-76
2022/12/05 09:10:25;;;;;;;73.57;13.77;;;;;;;;;;5031517;28;20472;-76
2022/12/05 09:12:53;;;;;;;73.70;13.23;;;;;;;;;;5032336;28;20218;-76
2022/12/05 09:15:20;;;;;;;70.28;12.52;;;;;;;;;;5032664;28;20463;-76
2022/12/05 09:17:47;;;;;;;70.60;12.67;;;;;;;;;;5032840;28;20205;-76
2022/12/05 09:20:15;;;;;;;73.10;13.73;;;;;;;;;;5031779;28;20893;-76
2022/12/05 09:22:42;;;;;;;72.40;12.23;;;;;;;;;;5032295;28;20206;-76
2022/12/05 09:25:09;;;;;;;70.20;12.05;;;;;;;;;;5032607;28;20448;-76
2022/12/05 09:27:37;;;;;;;71.47;13.27;;;;;;;;;;5032564;28;20220;-76
2022/12/05 09:30:06;;;;;;;72.72;14.25;;;;;;;;;;5031442;28;20499;-75
2022/12/05 09:32:33;;;;;;;71.47;12.53;;;;;;;;;;5032007;28;20217;-77
2022/12/05 09:35:00;;;;;;;77.67;17.90;;;;;;;;;;5032071;28;20452;-76
2022/12/05 09:37:27;;;;;;;78.07;13.60;;;;;;;;;;5032171;28;20455;-76
2022/12/05 09:39:55;;;;;;;70.90;13.47;;;;;;;;;;5030900;28;20238;-76
2022/12/05 09:42:31;;;;;;;70.07;12.80;;;;;;;;;;5031924;28;20971;-76
2022/12/05 09:45:10;;;;;;;72.80;13.77;;;;;;;;;;5032093;28;20470;-76
2022/12/05 09:47:42;;;;;;;71.10;12.63;;;;;;;;;;5031918;28;20495;-76
2022/12/05 09:50:14;;;;;;;71.27;13.73;;;;;;;;;;5031096;28;20475;-76
2022/12/05 09:52:44;;;;;;;72.27;14.80;;;;;;;;;;5032037;28;20457;-75
2022/12/05 09:55:12;;;;;;;71.17;13.07;;;;;;;;;;5031416;28;20451;-75
2022/12/05 09:57:41;;;;;;;82.50;20.70;;;;;;;;;;5031723;28;20488;-76
2022/12/05 10:00:12;;;;;;;83.97;21.30;;;;;;;;;;5031431;28;20491;-77
2022/12/05 10:02:46;;;;;;;74.50;15.00;;;;;;;;;;5033350;28;20458;-77
2022/12/05 10:05:17;;;;;;;72.97;13.67;;;;;;;;;;5033462;28;20492;-76
2022/12/05 10:07:48;;;;;;;95.93;25.10;;;;;;;;;;5033077;28;20452;-77
2022/12/05 10:10:22;;;;;;;79.60;15.80;;;;;;;;;;5032313;28;20473;-76
2022/12/05 10:12:53;;;;;;;79.17;17.30;;;;;;;;;;5032813;28;20453;-76
2022/12/05 10:15:25;;;;;;;86.80;25.27;;;;;;;;;;5032354;28;20536;-76
2022/12/05 10:17:54;;;;;;;72.07;14.70;;;;;;;;;;5032203;28;20215;-77
2022/12/05 10:20:25;;;;;;;80.37;18.67;;;;;;;;;;5031762;28;21005;-76
2022/12/05 10:22:54;;;;;;;83.87;24.27;;;;;;;;;;5031833;28;20457;-76
2022/12/05 10:25:22;;;;;;;69.07;12.20;;;;;;;;;;5031797;28;20556;-76
2022/12/05 10:27:52;;;;;;;67.97;11.07;;;;;;;;;;5031838;28;20480;-76
2022/12/05 10:30:20;;;;;;;69.80;11.77;;;;;;;;;;5030881;28;20885;-76
2022/12/05 10:32:52;;;;;;;69.17;12.00;;;;;;;;;;5031814;28;20448;-75
2022/12/05 10:35:20;;;;;;;72.03;11.93;;;;;;;;;;5032042;28;20829;-76
2022/12/05 10:37:49;;;;;;;69.67;11.70;;;;;;;;;;5031352;28;20455;-75
2022/12/05 10:40:17;;;;;;;67.40;11.47;;;;;;;;;;5031474;28;20503;-77
2022/12/05 10:42:44;;;;;;;70.43;11.43;;;;;;;;;;5033336;28;20544;-76
2022/12/05 10:45:15;;;;;;;69.47;11.00;;;;;;;;;;5033005;28;20457;-77
2022/12/05 10:47:42;;;;;;;67.23;10.97;;;;;;;;;;5032199;28;20476;-76
2022/12/05 10:50:20;;;;;;;67.93;10.33;;;;;;;;;;5031229;28;20475;-77
2022/12/05 10:52:47;;;;;;;73.43;12.13;;;;;;;;;;5031940;28;20452;-77
2022/12/05 10:55:16;;;;;;;68.07;11.07;;;;;;;;;;5032316;28;20459;-77
2022/12/05 10:57:43;;;;;;;67.47;10.83;;;;;;;;;;5032680;28;20538;-77
2022/12/05 11:00:13;;;;;;;68.43;11.60;;;;;;;;;;5031890;28;20584;-77
2022/12/05 11:02:41;;;;;;;72.37;15.17;;;;;;;;;;5032674;28;20456;-77
2022/12/05 11:05:08;;;;;;;69.20;11.00;;;;;;;;;;5035342;28;20968;-78
2022/12/05 11:07:38;;;;;;;69.77;11.03;;;;;;;;;;5035910;28;20453;-78
2022/12/05 11:10:19;;;;;;;68.67;11.20;;;;;;;;;;5036823;28;20479;-77
2022/12/05 11:12:46;;;;;;;69.27;12.43;;;;;;;;;;5036139;28;20453;-77
2022/12/05 11:15:23;;;;;;;67.60;11.10;;;;;;;;;;5036085;28;20459;-77
2022/12/05 11:17:51;;;;;;;68.53;10.70;;;;;;;;;;5035708;28;20453;-77
2022/12/05 11:20:35;;;;;;;68.67;11.90;;;;;;;;;;5035214;28;20489;-77
2022/12/05 11:23:16;;;;;;;71.53;12.70;;;;;;;;;;5036207;28;20456;-77
2022/12/05 11:25:43;;;;;;;69.73;12.97;;;;;;;;;;5036136;28;20826;-77
2022/12/05 11:28:23;;;;;;;70.23;11.43;;;;;;;;;;5035645;28;21021;-77
2022/12/05 11:30:56;;;;;;;72.80;11.50;;;;;;;;;;5035432;28;20543;-77
2022/12/05 11:33:24;;;;;;;70.20;12.43;;;;;;;;;;5036185;28;20448;-77
2022/12/05 11:35:52;;;;;;;76.57;14.73;;;;;;;;;;5035994;28;20828;-77
2022/12/05 11:38:22;;;;;;;74.30;14.00;;;;;;;;;;5035462;28;20831;-77
2022/12/05 11:40:53;;;;;;;68.97;12.00;;;;;;;;;;5034598;28;20488;-76
2022/12/05 11:43:32;;;;;;;70.00;12.00;;;;;;;;;;5035504;28;20455;-77
2022/12/05 11:46:03;;;;;;;69.60;11.50;;;;;;;;;;5035326;28;20459;-77
2022/12/05 11:48:37;;;;;;;68.27;12.37;;;;;;;;;;5035145;28;20969;-77
2022/12/05 11:51:12;;;;;;;70.60;12.57;;;;;;;;;;5035215;28;20831;-77
2022/12/05 11:53:46;;;;;;;66.97;11.13;;;;;;;;;;5035843;28;20456;-77
2022/12/05 11:56:18;;;;;;;69.27;12.00;;;;;;;;;;5035441;28;20458;-77
2022/12/05 11:58:57;;;;;;;71.30;13.37;;;;;;;;;;5034286;28;20812;-77
2022/12/05 12:01:31;;;;;;;69.93;11.70;;;;;;;;;;5035296;28;20437;-77
2022/12/05 12:04:10;;;;;;;67.93;12.33;;;;;;;;;;5033926;28;21141;-76
2022/12/05 12:06:47;;;;;;;71.17;12.27;;;;;;;;;;5033591;28;20445;-76
2022/12/05 12:09:29;;;;;;;71.87;13.73;;;;;;;;;;5035553;28;20560;-78
2022/12/05 12:12:02;;;;;;;71.63;15.17;;;;;;;;;;5035776;28;20467;-77
2022/12/05 12:14:35;;;;;;;70.23;14.23;;;;;;;;;;5037523;28;20452;-78
2022/12/05 12:17:09;;;;;;;77.20;13.20;;;;;;;;;;5038481;28;20457;-77
2022/12/05 12:19:42;;;;;;;72.63;13.80;;;;;;;;;;5017138;28;20490;-75
2022/12/05 12:22:17;;;;;;;73.93;14.87;;;;;;;;;;5013965;28;20969;-76
2022/12/05 12:24:55;;;;;;;74.37;15.40;;;;;;;;;;5014403;28;20512;-76
2022/12/05 12:27:30;;;;;;;70.27;14.03;;;;;;;;;;5014587;28;20448;-76
2022/12/05 12:30:02;;;;;;;70.37;14.00;;;;;;;;;;5012626;28;20828;-76
2022/12/05 12:32:33;;;;;;;71.40;14.60;;;;;;;;;;5014805;28;20548;-76
2022/12/05 12:35:18;;;;;;;68.60;12.10;;;;;;;;;;5013106;28;20446;-76
2022/12/05 12:37:51;;;;;;;68.10;12.20;;;;;;;;;;5014709;28;20829;-77
2022/12/05 12:40:21;;;;;;;71.20;13.40;;;;;;;;;;5014282;28;20486;-78
2022/12/05 12:42:57;;;;;;;69.40;12.07;;;;;;;;;;5014061;28;20486;-77
2022/12/05 12:45:44;;;;;;;74.17;13.50;;;;;;;;;;5014222;28;20978;-76
2022/12/05 12:48:25;;;;;;;72.27;14.47;;;;;;;;;;5013421;28;20454;-76
2022/12/05 12:50:54;;;;;;;69.87;11.80;;;;;;;;;;5016331;28;20548;-78
2022/12/05 12:53:28;;;;;;;70.27;12.10;;;;;;;;;;5021259;28;21021;-79
2022/12/05 12:56:01;;;;;;;72.07;12.60;;;;;;;;;;5019973;28;20445;-75
2022/12/05 12:58:37;;;;;;;66.87;11.90;;;;;;;;;;5017181;28;20442;-79
2022/12/05 13:01:08;;;;;;;70.90;11.70;;;;;;;;;;5018821;28;21116;-78
2022/12/05 13:03:41;;;;;;;68.37;11.60;;;;;;;;;;5017431;28;20458;-79
2022/12/05 13:06:13;;;;;;;70.97;12.33;;;;;;;;;;5017069;28;20970;-78
2022/12/05 13:08:43;;;;;;;71.77;14.10;;;;;;;;;;5016655;28;20450;-79
2022/12/05 13:11:11;;;;;;;70.57;11.77;;;;;;;;;;5017300;28;20533;-79
2022/12/05 13:13:42;;;;;;;80.70;19.47;;;;;;;;;;5016216;28;20541;-76
2022/12/05 13:16:10;;;;;;;75.30;12.77;;;;;;;;;;5014435;28;20537;-78
2022/12/05 13:18:38;;;;;;;74.07;15.50;;;;;;;;;;5016010;28;20485;-78
2022/12/05 13:21:07;;;;;;;72.30;14.37;;;;;;;;;;5016383;28;20544;-77
2022/12/05 13:23:37;;;;;;;79.00;11.63;;;;;;;;;;5015174;28;20493;-78
2022/12/05 13:26:08;;;;;;;70.97;11.90;;;;;;;;;;5014116;28;20485;-78
2022/12/05 13:28:40;;;;;;;69.67;10.60;;;;;;;;;;5015360;28;20454;-78
2022/12/05 13:31:09;;;;;;;79.10;17.80;;;;;;;;;;5015532;28;20453;-78
2022/12/05 13:33:42;;;;;;;68.07;10.73;;;;;;;;;;5017314;28;20450;-78
2022/12/05 13:44:33;;;;;;;68.13;11.07;;;;;;;;;;5017814;28;20472;-78
2022/12/05 13:47:06;;;;;;;68.40;11.37;;;;;;;;;;5016392;28;20987;-78
2022/12/05 13:49:36;;;;;;;67.40;10.30;;;;;;;;;;5015214;28;20485;-78
2022/12/05 13:52:08;;;;;;;69.10;12.40;;;;;;;;;;5016617;28;20453;-78
2022/12/05 13:54:36;;;;;;;66.60;10.80;;;;;;;;;;5016175;28;20541;-77
2022/12/05 13:57:04;;;;;;;66.70;11.40;;;;;;;;;;5017061;28;20529;-77
2022/12/05 13:59:55;;;;;;;68.00;10.90;;;;;;;;;;5014829;28;20478;-77
2022/12/05 14:02:40;;;;;;;67.20;11.73;;;;;;;;;;5002876;28;20458;-77
2022/12/05 14:05:24;;;;;;;68.10;11.40;;;;;;;;;;5013525;28;20859;-77
2022/12/05 14:07:53;;;;;;;69.07;11.00;;;;;;;;;;5013494;28;20446;-77
2022/12/05 14:10:21;;;;;;;69.50;12.50;;;;;;;;;;5012850;28;20457;-76
2022/12/05 14:12:56;;;;;;;70.90;12.23;;;;;;;;;;5012970;28;20533;-76
2022/12/05 14:15:30;;;;;;;69.23;12.20;;;;;;;;;;5012977;28;20453;-77
2022/12/05 14:18:00;;;;;;;70.20;13.27;;;;;;;;;;5012397;28;20802;-77
2022/12/05 14:20:31;;;;;;;71.80;14.17;;;;;;;;;;5011352;28;20492;-76
2022/12/05 14:23:07;;;;;;;71.80;13.90;;;;;;;;;;5012303;28;20453;-76
2022/12/05 14:25:42;;;;;;;70.33;12.50;;;;;;;;;;5012800;28;20831;-77
2022/12/05 14:28:17;;;;;;;74.20;15.57;;;;;;;;;;5012404;28;20479;-77
2022/12/05 14:30:49;;;;;;;71.87;13.47;;;;;;;;;;5011765;28;20469;-76
2022/12/05 14:33:17;;;;;;;69.00;12.47;;;;;;;;;;5012381;28;20540;-76
2022/12/05 14:35:45;;;;;;;72.13;14.00;;;;;;;;;;5012129;28;20454;-77
2022/12/05 14:38:22;;;;;;;75.80;17.77;;;;;;;;;;5011932;28;20458;-76
2022/12/05 14:40:49;;;;;;;71.73;13.80;;;;;;;;;;5012093;28;20500;-77
2022/12/05 14:43:19;;;;;;;70.37;13.50;;;;;;;;;;5016573;28;20550;-77
2022/12/05 14:45:56;;;;;;;72.07;13.00;;;;;;;;;;5016201;28;21038;-77